createdAt,value
2018-03-15T00:02:29.540Z,2.44
2018-03-15T00:05:01.234Z,2.19
2018-03-15T00:07:33.057Z,2.19
2018-03-15T00:10:04.877Z,2.26
2018-03-15T00:12:36.721Z,2.27
2018-03-15T00:15:07.683Z,2.13
2018-03-15T00:17:38.473Z,2.30
2018-03-15T00:20:09.588Z,2.41
2018-03-15T00:22:41.025Z,2.14
2018-03-15T00:25:12.488Z,2.28
2018-03-15T00:27:44.252Z,2.30
2018-03-15T00:30:15.068Z,2.21
2018-03-15T00:32:46.500Z,2.45
2018-03-15T00:35:18.221Z,2.39
2018-03-15T00:37:50.044Z,2.13
2018-03-15T00:40:22.036Z,2.30
2018-03-15T00:42:52.864Z,2.28
2018-03-15T00:45:23.643Z,2.31
2018-03-15T00:47:55.456Z,2.31
2018-03-15T00:50:27.001Z,2.11
2018-03-15T00:52:58.268Z,2.09
2018-03-15T00:55:30.381Z,2.08
2018-03-15T00:58:02.565Z,2.16
2018-03-15T01:00:34.291Z,2.12
2018-03-15T01:03:05.510Z,1.80
2018-03-15T01:05:36.305Z,2.30
2018-03-15T01:08:08.154Z,2.14
2018-03-15T01:10:39.352Z,2.01
2018-03-15T01:13:10.869Z,2.14
2018-03-15T01:15:42.768Z,1.95
2018-03-15T01:18:13.992Z,1.77
2018-03-15T01:20:45.802Z,1.77
2018-03-15T01:23:16.656Z,1.73
2018-03-15T01:25:48.093Z,1.82
2018-03-15T01:28:19.364Z,1.76
2018-03-15T01:30:51.072Z,1.90
2018-03-15T01:33:22.545Z,1.89
2018-03-15T01:35:53.674Z,1.61
2018-03-15T01:38:25.203Z,1.66
2018-03-15T01:40:57.120Z,1.69
2018-03-15T01:43:28.443Z,1.54
2018-03-15T01:45:59.793Z,1.65
2018-03-15T01:48:32.217Z,1.71
2018-03-15T01:51:03.684Z,1.67
2018-03-15T01:53:34.980Z,1.15
2018-03-15T01:56:06.805Z,1.65
2018-03-15T01:58:38.390Z,1.86
2018-03-15T02:01:09.880Z,1.77
2018-03-15T02:03:41.721Z,1.60
2018-03-15T02:06:13.083Z,1.37
2018-03-15T02:08:44.608Z,1.53
2018-03-15T02:11:16.487Z,1.59
2018-03-15T02:13:47.900Z,1.23
2018-03-15T02:16:19.645Z,1.58
2018-03-15T02:18:50.706Z,1.63
2018-03-15T02:21:21.889Z,1.41
2018-03-15T02:23:53.827Z,1.38
2018-03-15T02:26:25.117Z,1.24
2018-03-15T02:28:56.689Z,1.43
2018-03-15T02:31:28.637Z,1.25
2018-03-15T02:33:59.879Z,1.14
2018-03-15T02:36:31.754Z,0.96
2018-03-15T02:39:03.135Z,1.39
2018-03-15T02:41:34.569Z,1.32
2018-03-15T02:44:05.929Z,1.20
2018-03-15T02:46:38.877Z,1.43
2018-03-15T02:49:10.530Z,1.18
2018-03-15T02:51:42.118Z,0.88
2018-03-15T02:54:13.550Z,0.92
2018-03-15T02:56:44.726Z,0.27
2018-03-15T02:59:16.081Z,0.41
2018-03-15T03:01:47.527Z,0.52
2018-03-15T03:04:18.879Z,0.71
2018-03-15T03:06:50.766Z,0.64
2018-03-15T03:09:21.950Z,0.79
2018-03-15T03:11:53.945Z,0.95
2018-03-15T03:14:25.454Z,0.75
2018-03-15T03:16:57.342Z,0.91
2018-03-15T03:19:28.461Z,1.07
2018-03-15T03:21:59.793Z,1.10
2018-03-15T03:24:31.269Z,1.35
2018-03-15T03:27:02.501Z,1.03
2018-03-15T03:29:34.333Z,1.07
2018-03-15T03:32:07.241Z,0.83
2018-03-15T03:34:38.517Z,0.54
2018-03-15T03:37:10.017Z,1.20
2018-03-15T03:39:41.296Z,1.47
2018-03-15T03:42:12.666Z,1.17
2018-03-15T03:44:44.153Z,1.30
2018-03-15T03:47:15.915Z,1.60
2018-03-15T03:49:47.436Z,1.35
2018-03-15T03:52:19.361Z,1.74
2018-03-15T03:54:51.025Z,1.43
2018-03-15T03:57:22.426Z,1.01
2018-03-15T03:59:53.534Z,0.83
2018-03-15T04:02:24.772Z,0.83
2018-03-15T04:04:56.471Z,1.21
2018-03-15T04:07:29.605Z,1.10
2018-03-15T04:10:01.222Z,1.35
2018-03-15T04:12:33.009Z,1.10
2018-03-15T04:15:05.381Z,0.88
2018-03-15T04:17:36.789Z,1.25
2018-03-15T04:20:08.099Z,1.40
2018-03-15T04:22:40.086Z,1.36
2018-03-15T04:25:11.970Z,1.39
2018-03-15T04:27:43.542Z,1.12
2018-03-15T04:30:14.693Z,1.09
2018-03-15T04:32:46.179Z,0.95
2018-03-15T04:35:17.969Z,1.16
2018-03-15T04:37:49.485Z,0.88
2018-03-15T04:40:21.264Z,0.61
2018-03-15T04:42:52.580Z,0.26
2018-03-15T04:45:25.305Z,0.01
2018-03-15T04:47:56.617Z,0.25
2018-03-15T04:50:27.981Z,0.53
2018-03-15T04:52:59.577Z,0.62
2018-03-15T04:55:45.545Z,0.47
2018-03-15T04:58:17.207Z,0.46
2018-03-15T05:00:48.722Z,0.56
2018-03-15T05:03:20.329Z,0.47
2018-03-15T05:05:51.409Z,0.57
2018-03-15T05:08:22.632Z,0.72
2018-03-15T05:10:54.060Z,0.63
2018-03-15T05:13:25.393Z,0.88
2018-03-15T05:15:56.204Z,0.81
2018-03-15T05:18:28.129Z,0.76
2018-03-15T05:21:00.042Z,0.69
2018-03-15T05:23:31.606Z,0.77
2018-03-15T05:26:03.082Z,0.63
2018-03-15T05:28:34.328Z,0.67
2018-03-15T05:31:07.515Z,0.66
2018-03-15T05:33:39.112Z,0.75
2018-03-15T05:36:10.393Z,0.55
2018-03-15T05:38:42.153Z,0.52
2018-03-15T05:41:13.745Z,0.31
2018-03-15T05:43:44.641Z,0.59
2018-03-15T05:46:16.565Z,0.50
2018-03-15T05:48:49.493Z,0.28
2018-03-15T05:51:20.348Z,0.09
2018-03-15T05:53:52.065Z,0.47
2018-03-15T05:56:23.221Z,0.23
2018-03-15T05:58:54.382Z,0.11
2018-03-15T06:01:26.565Z,0.17
2018-03-15T06:03:57.421Z,0.08
2018-03-15T06:06:28.826Z,0.09
2018-03-15T06:08:59.964Z,0.10
2018-03-15T06:11:30.688Z,0.11
2018-03-15T06:14:02.484Z,0.24
2018-03-15T06:16:33.989Z,0.11
2018-03-15T06:19:05.233Z,0.31
2018-03-15T06:21:37.093Z,0.29
2018-03-15T06:24:08.596Z,0.26
2018-03-15T06:26:43.401Z,0.25
2018-03-15T06:29:20.638Z,0.25
2018-03-15T06:31:51.838Z,0.23
2018-03-15T06:34:22.971Z,0.38
2018-03-15T06:36:55.273Z,0.47
2018-03-15T06:39:26.129Z,0.51
2018-03-15T06:41:57.053Z,0.51
2018-03-15T06:44:27.833Z,0.43
2018-03-15T06:46:59.120Z,0.52
2018-03-15T06:49:30.740Z,0.65
2018-03-15T06:52:02.161Z,0.74
2018-03-15T06:54:32.946Z,0.84
2018-03-15T06:57:04.203Z,0.74
2018-03-15T06:59:44.241Z,0.79
2018-03-15T07:02:14.986Z,0.86
2018-03-15T07:04:46.106Z,1.01
2018-03-15T07:07:16.917Z,1.00
2018-03-15T07:09:47.716Z,1.17
2018-03-15T07:12:18.535Z,1.01
2018-03-15T07:14:49.925Z,1.20
2018-03-15T07:17:20.701Z,1.35
2018-03-15T07:19:51.849Z,1.41
2018-03-15T07:22:22.669Z,1.53
2018-03-15T07:24:54.273Z,1.75
2018-03-15T07:27:25.133Z,1.72
2018-03-15T07:29:55.908Z,1.93
2018-03-15T07:32:26.740Z,1.98
2018-03-15T07:34:58.223Z,1.89
2018-03-15T07:37:29.072Z,2.15
2018-03-15T07:40:00.157Z,2.21
2018-03-15T07:42:31.502Z,2.12
2018-03-15T07:45:02.344Z,2.40
2018-03-15T07:47:33.413Z,2.27
2018-03-15T07:50:04.247Z,2.70
2018-03-15T07:52:36.445Z,2.64
2018-03-15T07:55:07.597Z,2.81
2018-03-15T07:57:39.113Z,2.75
2018-03-15T08:00:10.478Z,2.72
2018-03-15T08:02:41.372Z,2.79
2018-03-15T08:05:12.333Z,2.83
2018-03-15T08:07:43.558Z,2.78
2018-03-15T08:10:15.099Z,2.94
2018-03-15T08:12:46.725Z,3.00
2018-03-15T08:15:17.822Z,2.96
2018-03-15T08:17:48.630Z,2.88
2018-03-15T08:20:20.000Z,2.89
2018-03-15T08:22:52.186Z,2.95
2018-03-15T08:25:23.018Z,2.79
2018-03-15T08:27:53.874Z,2.70
2018-03-15T08:30:24.701Z,2.74
2018-03-15T08:32:56.250Z,2.89
2018-03-15T08:35:27.421Z,2.97
2018-03-15T08:37:59.899Z,3.20
2018-03-15T08:40:31.693Z,3.23
2018-03-15T08:43:02.539Z,3.29
2018-03-15T08:45:33.351Z,3.34
2018-03-15T08:48:04.152Z,3.79
2018-03-15T08:50:35.034Z,3.59
2018-03-15T08:53:06.282Z,3.85
2018-03-15T08:55:37.417Z,4.27
2018-03-15T08:58:08.254Z,4.10
2018-03-15T09:00:39.611Z,4.48
2018-03-15T09:03:11.313Z,4.72
2018-03-15T09:05:42.166Z,4.81
2018-03-15T09:08:13.655Z,4.83
2018-03-15T09:10:44.916Z,5.01
2018-03-15T09:13:15.744Z,5.06
2018-03-15T09:15:47.181Z,5.04
2018-03-15T09:18:18.056Z,5.22
2018-03-15T09:20:49.200Z,5.17
2018-03-15T09:23:20.316Z,5.46
2018-03-15T09:25:51.809Z,5.75
2018-03-15T09:28:23.034Z,5.98
2018-03-15T09:30:54.226Z,5.91
2018-03-15T09:33:31.080Z,5.93
2018-03-15T09:36:02.190Z,5.95
2018-03-15T09:38:33.561Z,5.81
2018-03-15T09:41:04.846Z,6.03
2018-03-15T09:43:36.753Z,6.33
2018-03-15T09:46:07.694Z,6.39
2018-03-15T09:48:38.722Z,6.47
2018-03-15T09:51:10.029Z,6.40
2018-03-15T09:53:41.530Z,6.61
2018-03-15T09:56:12.345Z,6.98
2018-03-15T09:58:43.178Z,7.24
2018-03-15T10:01:14.284Z,6.87
2018-03-15T10:03:45.573Z,6.96
2018-03-15T10:06:16.677Z,7.29
2018-03-15T10:08:47.594Z,7.28
2018-03-15T10:11:18.777Z,7.41
2018-03-15T10:13:49.668Z,7.55
2018-03-15T10:16:23.628Z,7.64
2018-03-15T10:18:54.569Z,7.11
2018-03-15T10:21:25.742Z,7.77
2018-03-15T10:23:56.662Z,7.96
2018-03-15T10:26:28.377Z,7.88
2018-03-15T10:28:59.290Z,7.92
2018-03-15T10:31:30.877Z,7.83
2018-03-15T10:34:02.031Z,8.23
2018-03-15T10:36:33.076Z,8.23
2018-03-15T10:39:03.914Z,8.40
2018-03-15T10:41:34.750Z,8.50
2018-03-15T10:44:05.904Z,8.55
2018-03-15T10:46:37.426Z,8.46
2018-03-15T10:49:08.549Z,8.15
2018-03-15T10:51:39.310Z,8.53
2018-03-15T10:54:10.934Z,8.55
2018-03-15T10:56:42.038Z,8.66
2018-03-15T10:59:13.585Z,8.71
2018-03-15T11:01:48.299Z,8.82
2018-03-15T11:04:23.349Z,8.89
2018-03-15T11:06:58.028Z,8.88
2018-03-15T11:09:32.269Z,8.74
2018-03-15T11:12:03.133Z,8.97
2018-03-15T11:14:34.286Z,8.46
2018-03-15T11:17:05.159Z,8.35
2018-03-15T11:19:35.990Z,9.24
2018-03-15T11:22:07.152Z,8.75
2018-03-15T11:24:39.109Z,9.10
2018-03-15T11:27:09.796Z,8.90
2018-03-15T11:29:40.894Z,9.35
2018-03-15T11:32:11.806Z,8.94
2018-03-15T11:34:42.873Z,9.41
2018-03-15T11:37:13.906Z,9.76
2018-03-15T11:39:45.326Z,9.77
2018-03-15T11:42:16.459Z,9.53
2018-03-15T11:44:47.307Z,9.60
2018-03-15T11:47:18.690Z,9.64
2018-03-15T11:49:49.817Z,9.97
2018-03-15T11:52:21.306Z,10.17
2018-03-15T11:54:52.837Z,10.08
2018-03-15T11:57:24.023Z,9.90
2018-03-15T11:59:58.329Z,9.87
2018-03-15T12:02:29.772Z,9.97
2018-03-15T12:05:00.556Z,10.56
2018-03-15T12:07:31.405Z,10.89
2018-03-15T12:10:02.629Z,11.03
2018-03-15T12:12:35.313Z,10.41
2018-03-15T12:15:07.257Z,10.75
2018-03-15T12:17:38.142Z,10.42
2018-03-15T12:20:09.057Z,10.33
2018-03-15T12:22:40.197Z,10.24
2018-03-15T12:25:11.161Z,9.88
2018-03-15T12:27:42.098Z,10.22
2018-03-15T12:30:13.919Z,10.23
2018-03-15T12:32:44.689Z,10.47
2018-03-15T12:35:15.593Z,10.83
2018-03-15T12:37:46.822Z,10.65
2018-03-15T12:40:17.710Z,10.85
2018-03-15T12:42:48.486Z,10.65
2018-03-15T12:45:19.401Z,10.69
2018-03-15T12:47:53.613Z,10.74
2018-03-15T12:50:24.497Z,10.73
2018-03-15T12:52:55.932Z,10.88
2018-03-15T12:55:27.403Z,10.86
2018-03-15T12:57:58.214Z,10.58
2018-03-15T13:00:29.235Z,10.75
2018-03-15T13:03:00.448Z,10.47
2018-03-15T13:05:31.269Z,10.79
2018-03-15T13:08:02.101Z,10.80
2018-03-15T13:10:37.769Z,11.01
2018-03-15T13:13:09.180Z,10.94
2018-03-15T13:15:40.333Z,10.73
2018-03-15T13:18:11.156Z,10.99
2018-03-15T13:20:41.958Z,10.89
2018-03-15T13:23:13.622Z,11.10
2018-03-15T13:25:45.009Z,11.13
2018-03-15T13:28:15.865Z,11.29
2018-03-15T13:30:46.953Z,11.52
2018-03-15T13:33:17.922Z,11.46
2018-03-15T13:35:48.793Z,11.26
2018-03-15T13:38:19.933Z,11.34
2018-03-15T13:40:50.761Z,11.20
2018-03-15T13:43:21.630Z,11.30
2018-03-15T13:45:53.177Z,10.91
2018-03-15T13:48:24.250Z,11.04
2018-03-15T13:50:55.957Z,10.84
2018-03-15T13:53:26.821Z,11.09
2018-03-15T13:55:58.407Z,10.94
2018-03-15T13:58:29.277Z,10.72
2018-03-15T14:01:00.574Z,11.02
2018-03-15T14:03:31.686Z,10.91
2018-03-15T14:06:04.145Z,11.09
2018-03-15T14:08:35.205Z,10.82
2018-03-15T14:11:06.522Z,10.99
2018-03-15T14:13:37.365Z,10.78
2018-03-15T14:16:08.625Z,10.72
2018-03-15T14:18:39.637Z,10.66
2018-03-15T14:21:10.866Z,10.60
2018-03-15T14:23:41.634Z,10.76
2018-03-15T14:26:12.488Z,10.54
2018-03-15T14:28:43.532Z,10.63
2018-03-15T14:31:14.392Z,10.67
2018-03-15T14:33:45.214Z,10.70
2018-03-15T14:36:16.451Z,10.47
2018-03-15T14:38:47.291Z,10.60
2018-03-15T14:41:18.178Z,10.28
2018-03-15T14:43:51.338Z,10.57
2018-03-15T14:46:22.218Z,10.60
2018-03-15T14:48:53.401Z,10.58
2018-03-15T14:51:24.188Z,10.63
2018-03-15T14:53:55.166Z,10.63
2018-03-15T14:56:26.282Z,10.70
2018-03-15T14:58:57.018Z,10.71
2018-03-15T15:01:27.875Z,10.77
2018-03-15T15:03:58.929Z,10.69
2018-03-15T15:06:29.774Z,10.54
2018-03-15T15:09:00.622Z,10.59
2018-03-15T15:11:31.892Z,10.30
2018-03-15T15:14:02.722Z,10.55
2018-03-15T15:16:33.593Z,10.39
2018-03-15T15:19:04.734Z,10.23
2018-03-15T15:21:35.494Z,10.01
2018-03-15T15:24:06.656Z,10.08
2018-03-15T15:26:37.609Z,9.89
2018-03-15T15:29:08.631Z,10.18
2018-03-15T15:31:39.637Z,10.17
2018-03-15T15:34:10.466Z,10.08
2018-03-15T15:36:41.369Z,10.06
2018-03-15T15:39:12.649Z,9.95
2018-03-15T15:41:43.489Z,10.03
2018-03-15T15:44:15.294Z,9.91
2018-03-15T15:46:46.204Z,9.83
2018-03-15T15:49:16.997Z,9.86
2018-03-15T15:51:48.672Z,9.62
2018-03-15T15:54:19.509Z,9.55
2018-03-15T15:56:50.407Z,9.61
2018-03-15T15:59:21.536Z,9.62
2018-03-15T16:01:52.414Z,9.42
2018-03-15T16:04:23.317Z,9.51
2018-03-15T16:06:54.542Z,9.06
2018-03-15T16:09:25.480Z,9.23
2018-03-15T16:11:56.799Z,9.11
2018-03-15T16:14:27.826Z,9.04
2018-03-15T16:17:04.469Z,8.99
2018-03-15T16:19:35.609Z,8.71
2018-03-15T16:22:06.554Z,8.80
2018-03-15T16:24:37.344Z,8.91
2018-03-15T16:27:08.622Z,8.83
2018-03-15T16:29:39.493Z,8.75
2018-03-15T16:32:10.444Z,8.73
2018-03-15T16:34:41.618Z,8.86
2018-03-15T16:37:12.585Z,8.72
2018-03-15T16:39:43.585Z,8.72
2018-03-15T16:42:14.397Z,8.63
2018-03-15T16:44:45.311Z,8.50
2018-03-15T16:47:16.442Z,8.55
2018-03-15T16:49:47.293Z,8.48
2018-03-15T16:52:18.119Z,8.48
2018-03-15T16:54:53.219Z,8.60
2018-03-15T16:57:24.065Z,8.48
2018-03-15T16:59:55.821Z,8.25
2018-03-15T17:02:26.629Z,8.19
2018-03-15T17:04:57.605Z,8.23
2018-03-15T17:07:28.809Z,7.94
2018-03-15T17:09:59.705Z,8.17
2018-03-15T17:12:30.541Z,8.09
2018-03-15T17:15:01.670Z,8.07
2018-03-15T17:17:32.547Z,8.20
2018-03-15T17:20:03.574Z,8.17
2018-03-15T17:22:35.510Z,8.09
2018-03-15T17:25:06.739Z,7.70
2018-03-15T17:27:38.050Z,7.89
2018-03-15T17:30:10.135Z,7.87
2018-03-15T17:32:41.817Z,8.09
2018-03-15T17:35:13.356Z,7.76
2018-03-15T17:37:44.325Z,7.94
2018-03-15T17:40:15.742Z,8.14
2018-03-15T17:42:47.038Z,8.05
2018-03-15T17:45:18.089Z,8.16
2018-03-15T17:47:49.382Z,7.88
2018-03-15T17:50:20.512Z,7.79
2018-03-15T17:52:52.169Z,7.86
2018-03-15T17:55:23.439Z,7.52
2018-03-15T17:57:54.386Z,7.43
2018-03-15T18:00:26.038Z,7.39
2018-03-15T18:02:56.933Z,7.39
2018-03-15T18:05:27.773Z,7.25
2018-03-15T18:07:58.890Z,7.41
2018-03-15T18:10:29.970Z,7.47
2018-03-15T18:13:00.928Z,7.30
2018-03-15T18:15:33.230Z,7.26
2018-03-15T18:18:04.138Z,7.23
2018-03-15T18:20:35.078Z,7.12
2018-03-15T18:23:06.545Z,7.14
2018-03-15T18:25:37.798Z,7.13
2018-03-15T18:28:08.934Z,7.25
2018-03-15T18:30:40.306Z,7.10
2018-03-15T18:33:11.248Z,7.02
2018-03-15T18:35:42.312Z,7.03
2018-03-15T18:38:13.765Z,6.99
2018-03-15T18:40:44.623Z,6.99
2018-03-15T18:43:16.922Z,6.95
2018-03-15T18:45:48.010Z,6.99
2018-03-15T18:48:19.153Z,6.94
2018-03-15T18:50:50.362Z,6.86
2018-03-15T18:53:21.535Z,6.88
2018-03-15T18:55:52.386Z,6.66
2018-03-15T18:58:24.239Z,6.78
2018-03-15T19:00:55.090Z,6.83
2018-03-15T19:03:26.007Z,6.68
2018-03-15T19:05:56.916Z,6.85
2018-03-15T19:08:28.615Z,6.75
2018-03-15T19:11:00.325Z,6.69
2018-03-15T19:13:31.246Z,6.71
2018-03-15T19:16:02.366Z,6.62
2018-03-15T19:18:33.305Z,6.65
2018-03-15T19:21:04.266Z,6.61
2018-03-15T19:23:35.761Z,6.63
2018-03-15T19:26:06.728Z,6.54
2018-03-15T19:28:37.682Z,6.60
2018-03-15T19:31:08.898Z,6.47
2018-03-15T19:33:39.762Z,6.46
2018-03-15T19:36:11.205Z,6.63
2018-03-15T19:38:42.105Z,6.51
2018-03-15T19:41:12.988Z,6.65
2018-03-15T19:43:44.141Z,6.27
2018-03-15T19:46:15.021Z,6.54
2018-03-15T19:48:46.189Z,6.28
2018-03-15T19:51:17.326Z,5.78
2018-03-15T19:53:48.161Z,6.09
2018-03-15T19:56:19.042Z,5.97
2018-03-15T19:58:50.161Z,5.82
2018-03-15T20:01:21.018Z,5.98
2018-03-15T20:03:52.220Z,5.71
2018-03-15T20:06:23.190Z,5.97
2018-03-15T20:08:54.362Z,5.76
2018-03-15T20:11:25.285Z,5.64
2018-03-15T20:13:56.862Z,5.80
2018-03-15T20:16:28.450Z,5.81
2018-03-15T20:19:03.177Z,5.81
2018-03-15T20:21:34.364Z,5.57
2018-03-15T20:24:36.041Z,5.30
2018-03-15T20:27:07.194Z,5.05
2018-03-15T20:29:38.030Z,5.39
2018-03-15T20:32:09.845Z,5.55
2018-03-15T20:34:41.034Z,4.71
2018-03-15T20:37:11.934Z,4.96
2018-03-15T20:41:50.959Z,5.18
2018-03-15T20:44:22.317Z,5.10
2018-03-15T20:49:03.182Z,4.78
2018-03-15T20:51:34.122Z,4.55
2018-03-15T20:54:05.957Z,4.99
2018-03-15T20:56:37.733Z,4.49
2018-03-15T20:59:08.649Z,4.36
2018-03-15T21:01:39.624Z,4.70
2018-03-15T21:04:10.622Z,4.84
2018-03-15T21:06:42.691Z,5.02
2018-03-15T21:09:14.131Z,5.00
2018-03-15T21:11:45.138Z,4.68
2018-03-15T21:14:17.562Z,4.65
2018-03-15T21:16:48.834Z,4.92
2018-03-15T21:19:19.890Z,4.75
2018-03-15T21:21:51.081Z,4.70
2018-03-15T21:24:22.330Z,4.60
2018-03-15T21:26:53.137Z,4.25
2018-03-15T21:29:24.477Z,3.82
2018-03-15T21:31:55.841Z,3.89
2018-03-15T21:34:26.825Z,3.90
2018-03-15T21:36:59.073Z,3.57
2018-03-15T21:39:30.179Z,3.79
2018-03-15T21:42:01.101Z,3.48
2018-03-15T21:44:32.705Z,3.60
2018-03-15T21:47:04.249Z,3.85
2018-03-15T21:49:35.105Z,4.27
2018-03-15T21:52:06.778Z,4.01
2018-03-15T21:54:37.645Z,4.25
2018-03-15T21:57:08.925Z,4.01
2018-03-15T21:59:39.889Z,3.77
2018-03-15T22:02:10.758Z,3.71
2018-03-15T22:04:41.838Z,3.22
2018-03-15T22:07:13.141Z,3.42
2018-03-15T22:09:43.895Z,3.76
2018-03-15T22:12:15.325Z,4.14
2018-03-15T22:14:46.207Z,4.11
2018-03-15T22:17:17.021Z,3.91
2018-03-15T22:19:48.077Z,4.07
2018-03-15T22:22:18.903Z,4.14
2018-03-15T22:24:49.729Z,4.33
2018-03-15T22:27:20.809Z,4.28
2018-03-15T22:29:52.249Z,4.07
2018-03-15T22:32:23.202Z,4.23
2018-03-15T22:34:54.317Z,4.25
2018-03-15T22:37:25.141Z,3.89
2018-03-15T22:39:56.624Z,4.14
2018-03-15T22:42:32.248Z,4.06
2018-03-15T22:45:03.464Z,4.32
2018-03-15T22:47:34.978Z,4.39
2018-03-15T22:50:06.068Z,3.66
2018-03-15T22:52:36.843Z,3.90
2018-03-15T22:55:08.294Z,4.08
2018-03-15T22:57:39.794Z,4.19
2018-03-15T23:00:11.782Z,4.36
2018-03-15T23:02:42.864Z,4.01
2018-03-15T23:05:14.095Z,3.93
2018-03-15T23:07:45.134Z,4.12
2018-03-15T23:10:15.935Z,3.31
2018-03-15T23:12:47.004Z,3.44
2018-03-15T23:15:18.592Z,3.77
2018-03-15T23:17:49.404Z,3.93
2018-03-15T23:20:20.395Z,4.01
2018-03-15T23:22:52.171Z,4.13
2018-03-15T23:25:23.917Z,4.20
2018-03-15T23:27:54.673Z,3.84
2018-03-15T23:30:26.257Z,4.05
2018-03-15T23:32:57.463Z,3.98
2018-03-15T23:35:28.737Z,3.49
2018-03-15T23:37:59.889Z,3.25
2018-03-15T23:40:31.705Z,2.88
2018-03-15T23:43:02.545Z,3.51
2018-03-15T23:45:33.917Z,3.97
2018-03-15T23:48:04.823Z,3.37
2018-03-15T23:50:36.253Z,4.05
2018-03-15T23:53:07.893Z,3.80
2018-03-15T23:55:38.693Z,3.57
2018-03-15T23:58:09.515Z,3.72
